sensor_id;sensor_type;location;lat;lon;timestamp;P1;durP1;ratioP1;P2;durP2;ratioP2
40162;SDS011;25881;47.462;19.304;2022-08-21T00:00:45;12.80;;;9.83;;
40162;SDS011;25881;47.462;19.304;2022-08-21T00:03:11;10.77;;;9.13;;
40162;SDS011;25881;47.462;19.304;2022-08-21T00:05:37;11.27;;;9.25;;
40162;SDS011;25881;47.462;19.304;2022-08-21T00:08:04;13.05;;;9.55;;
40162;SDS011;25881;47.462;19.304;2022-08-21T00:10:29;11.07;;;9.85;;
40162;SDS011;25881;47.462;19.304;2022-08-21T00:12:54;14.30;;;9.98;;
40162;SDS011;25881;47.462;19.304;2022-08-21T00:15:22;11.27;;;10.20;;
40162;SDS011;25881;47.462;19.304;2022-08-21T00:17:47;11.02;;;9.93;;
40162;SDS011;25881;47.462;19.304;2022-08-21T00:20:13;12.60;;;10.65;;
40162;SDS011;25881;47.462;19.304;2022-08-21T00:22:39;13.00;;;10.05;;
40162;SDS011;25881;47.462;19.304;2022-08-21T00:25:06;14.18;;;10.43;;
40162;SDS011;25881;47.462;19.304;2022-08-21T00:27:31;13.77;;;9.70;;
40162;SDS011;25881;47.462;19.304;2022-08-21T00:29:57;12.20;;;9.77;;
40162;SDS011;25881;47.462;19.304;2022-08-21T00:32:22;10.30;;;9.20;;
40162;SDS011;25881;47.462;19.304;2022-08-21T00:34:48;13.07;;;8.75;;
40162;SDS011;25881;47.462;19.304;2022-08-21T00:37:13;12.45;;;8.93;;
40162;SDS011;25881;47.462;19.304;2022-08-21T00:39:39;12.77;;;9.82;;
40162;SDS011;25881;47.462;19.304;2022-08-21T00:42:04;11.07;;;9.55;;
40162;SDS011;25881;47.462;19.304;2022-08-21T00:44:29;10.90;;;9.18;;
40162;SDS011;25881;47.462;19.304;2022-08-21T00:46:56;12.13;;;10.15;;
40162;SDS011;25881;47.462;19.304;2022-08-21T00:49:22;12.02;;;9.30;;
40162;SDS011;25881;47.462;19.304;2022-08-21T00:51:48;11.43;;;9.43;;
40162;SDS011;25881;47.462;19.304;2022-08-21T00:54:14;11.70;;;9.88;;
40162;SDS011;25881;47.462;19.304;2022-08-21T00:56:40;11.95;;;9.68;;
40162;SDS011;25881;47.462;19.304;2022-08-21T00:59:05;11.10;;;9.38;;
40162;SDS011;25881;47.462;19.304;2022-08-21T01:01:31;12.75;;;9.27;;
40162;SDS011;25881;47.462;19.304;2022-08-21T01:03:56;11.30;;;9.07;;
40162;SDS011;25881;47.462;19.304;2022-08-21T01:06:21;10.37;;;9.20;;
40162;SDS011;25881;47.462;19.304;2022-08-21T01:08:47;10.43;;;8.80;;
40162;SDS011;25881;47.462;19.304;2022-08-21T01:11:13;10.80;;;8.63;;
40162;SDS011;25881;47.462;19.304;2022-08-21T01:13:39;12.27;;;9.73;;
40162;SDS011;25881;47.462;19.304;2022-08-21T01:16:11;9.27;;;8.32;;
40162;SDS011;25881;47.462;19.304;2022-08-21T01:18:36;11.45;;;8.93;;
40162;SDS011;25881;47.462;19.304;2022-08-21T01:23:27;9.00;;;7.93;;
40162;SDS011;25881;47.462;19.304;2022-08-21T01:25:52;9.90;;;8.90;;
40162;SDS011;25881;47.462;19.304;2022-08-21T01:28:17;13.00;;;8.83;;
40162;SDS011;25881;47.462;19.304;2022-08-21T01:30:44;10.57;;;9.48;;
40162;SDS011;25881;47.462;19.304;2022-08-21T01:33:09;11.95;;;9.02;;
40162;SDS011;25881;47.462;19.304;2022-08-21T01:35:35;11.70;;;8.95;;
40162;SDS011;25881;47.462;19.304;2022-08-21T01:38:00;10.47;;;9.40;;
40162;SDS011;25881;47.462;19.304;2022-08-21T01:40:25;10.87;;;8.60;;
40162;SDS011;25881;47.462;19.304;2022-08-21T01:42:50;10.23;;;8.80;;
40162;SDS011;25881;47.462;19.304;2022-08-21T01:45:16;12.17;;;9.20;;
40162;SDS011;25881;47.462;19.304;2022-08-21T01:47:42;11.48;;;9.57;;
40162;SDS011;25881;47.462;19.304;2022-08-21T01:50:08;11.27;;;10.20;;
40162;SDS011;25881;47.462;19.304;2022-08-21T01:52:35;11.17;;;10.07;;
40162;SDS011;25881;47.462;19.304;2022-08-21T01:55:00;11.83;;;9.83;;
40162;SDS011;25881;47.462;19.304;2022-08-21T01:57:25;11.03;;;9.87;;
40162;SDS011;25881;47.462;19.304;2022-08-21T01:59:50;12.10;;;10.90;;
40162;SDS011;25881;47.462;19.304;2022-08-21T02:02:16;13.60;;;11.10;;
40162;SDS011;25881;47.462;19.304;2022-08-21T02:04:41;12.30;;;11.07;;
40162;SDS011;25881;47.462;19.304;2022-08-21T02:07:06;13.43;;;12.03;;
40162;SDS011;25881;47.462;19.304;2022-08-21T02:09:32;12.98;;;11.70;;
40162;SDS011;25881;47.462;19.304;2022-08-21T02:11:57;15.13;;;11.97;;
40162;SDS011;25881;47.462;19.304;2022-08-21T02:14:22;13.30;;;10.87;;
40162;SDS011;25881;47.462;19.304;2022-08-21T02:16:47;16.30;;;11.97;;
40162;SDS011;25881;47.462;19.304;2022-08-21T02:19:13;15.67;;;12.40;;
40162;SDS011;25881;47.462;19.304;2022-08-21T02:21:39;16.48;;;12.68;;
40162;SDS011;25881;47.462;19.304;2022-08-21T02:24:04;13.10;;;11.73;;
40162;SDS011;25881;47.462;19.304;2022-08-21T02:26:30;15.70;;;11.40;;
40162;SDS011;25881;47.462;19.304;2022-08-21T02:28:55;14.97;;;13.00;;
40162;SDS011;25881;47.462;19.304;2022-08-21T02:31:20;16.03;;;12.40;;
40162;SDS011;25881;47.462;19.304;2022-08-21T02:33:45;12.87;;;11.53;;
40162;SDS011;25881;47.462;19.304;2022-08-21T02:36:11;13.10;;;11.63;;
40162;SDS011;25881;47.462;19.304;2022-08-21T02:38:37;18.88;;;13.13;;
40162;SDS011;25881;47.462;19.304;2022-08-21T02:41:03;13.68;;;12.27;;
40162;SDS011;25881;47.462;19.304;2022-08-21T02:43:29;16.95;;;13.02;;
40162;SDS011;25881;47.462;19.304;2022-08-21T02:45:55;15.52;;;13.43;;
40162;SDS011;25881;47.462;19.304;2022-08-21T02:48:22;14.27;;;12.70;;
40162;SDS011;25881;47.462;19.304;2022-08-21T02:50:51;15.93;;;14.05;;
40162;SDS011;25881;47.462;19.304;2022-08-21T02:55:43;16.07;;;13.27;;
40162;SDS011;25881;47.462;19.304;2022-08-21T02:58:08;18.27;;;14.68;;
40162;SDS011;25881;47.462;19.304;2022-08-21T03:00:34;16.38;;;14.43;;
40162;SDS011;25881;47.462;19.304;2022-08-21T03:02:59;16.25;;;13.68;;
40162;SDS011;25881;47.462;19.304;2022-08-21T03:05:25;19.13;;;14.85;;
40162;SDS011;25881;47.462;19.304;2022-08-21T03:07:51;17.55;;;15.18;;
40162;SDS011;25881;47.462;19.304;2022-08-21T03:10:17;17.83;;;14.27;;
40162;SDS011;25881;47.462;19.304;2022-08-21T03:12:44;18.13;;;15.05;;
40162;SDS011;25881;47.462;19.304;2022-08-21T03:15:11;22.23;;;15.70;;
40162;SDS011;25881;47.462;19.304;2022-08-21T03:17:37;17.77;;;14.52;;
40162;SDS011;25881;47.462;19.304;2022-08-21T03:20:03;19.07;;;14.43;;
40162;SDS011;25881;47.462;19.304;2022-08-21T03:22:29;19.45;;;15.25;;
40162;SDS011;25881;47.462;19.304;2022-08-21T03:24:54;16.90;;;13.70;;
40162;SDS011;25881;47.462;19.304;2022-08-21T03:27:19;18.53;;;13.07;;
40162;SDS011;25881;47.462;19.304;2022-08-21T03:29:44;17.97;;;14.17;;
40162;SDS011;25881;47.462;19.304;2022-08-21T03:32:10;18.53;;;15.20;;
40162;SDS011;25881;47.462;19.304;2022-08-21T03:34:38;16.42;;;14.25;;
40162;SDS011;25881;47.462;19.304;2022-08-21T03:37:07;17.25;;;15.32;;
40162;SDS011;25881;47.462;19.304;2022-08-21T03:39:32;17.52;;;14.98;;
40162;SDS011;25881;47.462;19.304;2022-08-21T03:41:58;17.45;;;14.73;;
40162;SDS011;25881;47.462;19.304;2022-08-21T03:44:24;15.57;;;13.95;;
40162;SDS011;25881;47.462;19.304;2022-08-21T03:46:50;20.10;;;14.38;;
40162;SDS011;25881;47.462;19.304;2022-08-21T03:49:15;17.27;;;14.60;;
40162;SDS011;25881;47.462;19.304;2022-08-21T03:51:41;16.27;;;14.30;;
40162;SDS011;25881;47.462;19.304;2022-08-21T03:54:06;17.23;;;13.70;;
40162;SDS011;25881;47.462;19.304;2022-08-21T03:56:31;18.17;;;14.23;;
40162;SDS011;25881;47.462;19.304;2022-08-21T03:58:56;21.38;;;14.23;;
40162;SDS011;25881;47.462;19.304;2022-08-21T04:01:22;17.00;;;14.13;;
40162;SDS011;25881;47.462;19.304;2022-08-21T04:03:47;17.93;;;14.80;;
40162;SDS011;25881;47.462;19.304;2022-08-21T04:06:12;15.73;;;12.67;;
40162;SDS011;25881;47.462;19.304;2022-08-21T04:08:37;19.48;;;14.93;;
40162;SDS011;25881;47.462;19.304;2022-08-21T04:11:03;20.33;;;14.07;;
40162;SDS011;25881;47.462;19.304;2022-08-21T04:13:28;20.45;;;13.98;;
40162;SDS011;25881;47.462;19.304;2022-08-21T04:15:54;15.77;;;13.38;;
40162;SDS011;25881;47.462;19.304;2022-08-21T04:18:19;17.00;;;13.20;;
40162;SDS011;25881;47.462;19.304;2022-08-21T04:20:46;17.42;;;14.80;;
40162;SDS011;25881;47.462;19.304;2022-08-21T04:23:13;19.20;;;13.85;;
40162;SDS011;25881;47.462;19.304;2022-08-21T04:25:38;19.40;;;14.32;;
40162;SDS011;25881;47.462;19.304;2022-08-21T04:28:03;17.23;;;13.77;;
40162;SDS011;25881;47.462;19.304;2022-08-21T04:30:29;18.58;;;13.75;;
40162;SDS011;25881;47.462;19.304;2022-08-21T04:32:55;17.17;;;13.50;;
40162;SDS011;25881;47.462;19.304;2022-08-21T04:35:21;17.83;;;13.95;;
40162;SDS011;25881;47.462;19.304;2022-08-21T04:37:46;17.75;;;14.13;;
40162;SDS011;25881;47.462;19.304;2022-08-21T04:40:13;18.63;;;13.77;;
40162;SDS011;25881;47.462;19.304;2022-08-21T04:42:48;17.92;;;13.35;;
40162;SDS011;25881;47.462;19.304;2022-08-21T04:45:24;18.00;;;13.40;;
40162;SDS011;25881;47.462;19.304;2022-08-21T04:47:53;18.02;;;14.23;;
40162;SDS011;25881;47.462;19.304;2022-08-21T04:50:19;17.73;;;14.38;;
40162;SDS011;25881;47.462;19.304;2022-08-21T04:52:45;19.40;;;15.52;;
40162;SDS011;25881;47.462;19.304;2022-08-21T04:55:11;23.63;;;15.80;;
40162;SDS011;25881;47.462;19.304;2022-08-21T04:57:37;18.13;;;14.10;;
40162;SDS011;25881;47.462;19.304;2022-08-21T05:00:03;19.88;;;14.77;;
40162;SDS011;25881;47.462;19.304;2022-08-21T05:02:30;17.40;;;13.88;;
40162;SDS011;25881;47.462;19.304;2022-08-21T05:04:58;23.00;;;14.43;;
40162;SDS011;25881;47.462;19.304;2022-08-21T05:07:24;19.42;;;15.07;;
40162;SDS011;25881;47.462;19.304;2022-08-21T05:09:51;17.80;;;14.00;;
40162;SDS011;25881;47.462;19.304;2022-08-21T05:12:17;22.48;;;14.73;;
40162;SDS011;25881;47.462;19.304;2022-08-21T05:14:42;20.13;;;15.00;;
40162;SDS011;25881;47.462;19.304;2022-08-21T05:17:08;21.05;;;15.48;;
40162;SDS011;25881;47.462;19.304;2022-08-21T05:19:33;22.13;;;15.63;;
40162;SDS011;25881;47.462;19.304;2022-08-21T05:21:59;17.42;;;15.15;;
40162;SDS011;25881;47.462;19.304;2022-08-21T05:24:25;20.15;;;14.20;;
40162;SDS011;25881;47.462;19.304;2022-08-21T05:26:50;20.75;;;14.63;;
40162;SDS011;25881;47.462;19.304;2022-08-21T05:29:16;19.43;;;14.67;;
40162;SDS011;25881;47.462;19.304;2022-08-21T05:31:42;22.00;;;15.00;;
40162;SDS011;25881;47.462;19.304;2022-08-21T05:34:07;21.65;;;15.48;;
40162;SDS011;25881;47.462;19.304;2022-08-21T05:36:33;21.42;;;15.10;;
40162;SDS011;25881;47.462;19.304;2022-08-21T05:38:58;20.17;;;14.32;;
40162;SDS011;25881;47.462;19.304;2022-08-21T05:41:23;20.43;;;14.97;;
40162;SDS011;25881;47.462;19.304;2022-08-21T05:43:49;19.53;;;14.00;;
40162;SDS011;25881;47.462;19.304;2022-08-21T05:46:14;19.93;;;15.97;;
40162;SDS011;25881;47.462;19.304;2022-08-21T05:48:39;22.80;;;15.68;;
40162;SDS011;25881;47.462;19.304;2022-08-21T05:51:06;20.38;;;15.05;;
40162;SDS011;25881;47.462;19.304;2022-08-21T05:53:31;21.33;;;16.00;;
40162;SDS011;25881;47.462;19.304;2022-08-21T05:55:56;20.27;;;15.07;;
40162;SDS011;25881;47.462;19.304;2022-08-21T05:58:22;22.57;;;15.67;;
40162;SDS011;25881;47.462;19.304;2022-08-21T06:00:51;19.05;;;14.50;;
40162;SDS011;25881;47.462;19.304;2022-08-21T06:03:17;20.80;;;16.52;;
40162;SDS011;25881;47.462;19.304;2022-08-21T06:05:43;26.73;;;15.93;;
40162;SDS011;25881;47.462;19.304;2022-08-21T06:08:08;19.90;;;15.43;;
40162;SDS011;25881;47.462;19.304;2022-08-21T06:10:33;19.15;;;16.10;;
40162;SDS011;25881;47.462;19.304;2022-08-21T06:12:59;20.97;;;15.13;;
40162;SDS011;25881;47.462;19.304;2022-08-21T06:15:24;18.33;;;15.03;;
40162;SDS011;25881;47.462;19.304;2022-08-21T06:17:49;16.85;;;14.45;;
40162;SDS011;25881;47.462;19.304;2022-08-21T06:20:15;17.83;;;14.23;;
40162;SDS011;25881;47.462;19.304;2022-08-21T06:22:40;20.17;;;15.57;;
40162;SDS011;25881;47.462;19.304;2022-08-21T06:25:05;17.33;;;13.03;;
40162;SDS011;25881;47.462;19.304;2022-08-21T06:27:30;19.77;;;14.48;;
40162;SDS011;25881;47.462;19.304;2022-08-21T06:29:56;17.73;;;13.70;;
40162;SDS011;25881;47.462;19.304;2022-08-21T06:32:22;18.75;;;14.93;;
40162;SDS011;25881;47.462;19.304;2022-08-21T06:34:47;18.40;;;13.83;;
40162;SDS011;25881;47.462;19.304;2022-08-21T06:37:13;18.00;;;14.70;;
40162;SDS011;25881;47.462;19.304;2022-08-21T06:39:38;16.57;;;14.23;;
40162;SDS011;25881;47.462;19.304;2022-08-21T06:42:04;19.05;;;13.88;;
40162;SDS011;25881;47.462;19.304;2022-08-21T06:44:30;18.38;;;13.35;;
40162;SDS011;25881;47.462;19.304;2022-08-21T06:46:55;19.00;;;15.13;;
40162;SDS011;25881;47.462;19.304;2022-08-21T06:49:21;17.50;;;13.95;;
40162;SDS011;25881;47.462;19.304;2022-08-21T06:51:47;17.00;;;13.93;;
40162;SDS011;25881;47.462;19.304;2022-08-21T06:54:12;18.73;;;13.90;;
40162;SDS011;25881;47.462;19.304;2022-08-21T06:56:37;18.60;;;14.00;;
40162;SDS011;25881;47.462;19.304;2022-08-21T06:59:03;19.17;;;15.32;;
40162;SDS011;25881;47.462;19.304;2022-08-21T07:01:28;18.30;;;14.50;;
40162;SDS011;25881;47.462;19.304;2022-08-21T07:03:54;17.00;;;13.77;;
40162;SDS011;25881;47.462;19.304;2022-08-21T07:06:19;16.98;;;13.20;;
40162;SDS011;25881;47.462;19.304;2022-08-21T07:08:44;16.70;;;13.27;;
40162;SDS011;25881;47.462;19.304;2022-08-21T07:11:14;17.03;;;12.53;;
40162;SDS011;25881;47.462;19.304;2022-08-21T07:13:41;16.80;;;14.10;;
40162;SDS011;25881;47.462;19.304;2022-08-21T07:16:07;21.07;;;13.20;;
40162;SDS011;25881;47.462;19.304;2022-08-21T07:18:33;15.98;;;12.63;;
40162;SDS011;25881;47.462;19.304;2022-08-21T07:20:58;16.83;;;12.33;;
40162;SDS011;25881;47.462;19.304;2022-08-21T07:23:26;16.45;;;13.07;;
40162;SDS011;25881;47.462;19.304;2022-08-21T07:25:52;15.60;;;13.43;;
40162;SDS011;25881;47.462;19.304;2022-08-21T07:28:18;16.88;;;13.50;;
40162;SDS011;25881;47.462;19.304;2022-08-21T07:30:43;19.65;;;15.18;;
40162;SDS011;25881;47.462;19.304;2022-08-21T07:33:09;19.63;;;13.57;;
40162;SDS011;25881;47.462;19.304;2022-08-21T07:35:34;19.87;;;12.60;;
40162;SDS011;25881;47.462;19.304;2022-08-21T07:38:02;13.82;;;11.80;;
40162;SDS011;25881;47.462;19.304;2022-08-21T07:40:27;15.37;;;12.87;;
40162;SDS011;25881;47.462;19.304;2022-08-21T07:42:52;15.63;;;12.80;;
40162;SDS011;25881;47.462;19.304;2022-08-21T07:45:21;15.57;;;13.13;;
40162;SDS011;25881;47.462;19.304;2022-08-21T07:47:47;15.10;;;11.75;;
40162;SDS011;25881;47.462;19.304;2022-08-21T07:50:13;19.85;;;13.77;;
40162;SDS011;25881;47.462;19.304;2022-08-21T07:52:39;15.25;;;13.60;;
40162;SDS011;25881;47.462;19.304;2022-08-21T07:55:04;15.10;;;11.85;;
40162;SDS011;25881;47.462;19.304;2022-08-21T07:57:29;16.00;;;12.07;;
40162;SDS011;25881;47.462;19.304;2022-08-21T07:59:55;15.32;;;12.23;;
40162;SDS011;25881;47.462;19.304;2022-08-21T08:02:21;15.90;;;12.93;;
40162;SDS011;25881;47.462;19.304;2022-08-21T08:04:46;17.05;;;12.18;;
40162;SDS011;25881;47.462;19.304;2022-08-21T08:07:11;18.33;;;13.50;;
40162;SDS011;25881;47.462;19.304;2022-08-21T08:09:37;14.65;;;11.43;;
40162;SDS011;25881;47.462;19.304;2022-08-21T08:12:02;13.80;;;11.93;;
40162;SDS011;25881;47.462;19.304;2022-08-21T08:14:28;13.82;;;11.98;;
40162;SDS011;25881;47.462;19.304;2022-08-21T08:16:54;13.93;;;11.57;;
40162;SDS011;25881;47.462;19.304;2022-08-21T08:19:19;16.85;;;11.60;;
40162;SDS011;25881;47.462;19.304;2022-08-21T08:21:44;14.13;;;12.03;;
40162;SDS011;25881;47.462;19.304;2022-08-21T08:24:10;16.00;;;12.43;;
40162;SDS011;25881;47.462;19.304;2022-08-21T08:26:35;17.97;;;11.77;;
40162;SDS011;25881;47.462;19.304;2022-08-21T08:29:00;14.50;;;11.37;;
40162;SDS011;25881;47.462;19.304;2022-08-21T08:31:25;17.90;;;12.20;;
40162;SDS011;25881;47.462;19.304;2022-08-21T08:33:50;16.23;;;11.63;;
40162;SDS011;25881;47.462;19.304;2022-08-21T08:36:16;14.98;;;11.02;;
40162;SDS011;25881;47.462;19.304;2022-08-21T08:38:42;14.90;;;11.63;;
40162;SDS011;25881;47.462;19.304;2022-08-21T08:41:12;15.43;;;10.98;;
40162;SDS011;25881;47.462;19.304;2022-08-21T08:43:38;16.17;;;11.05;;
40162;SDS011;25881;47.462;19.304;2022-08-21T08:46:13;15.90;;;11.88;;
40162;SDS011;25881;47.462;19.304;2022-08-21T08:48:45;13.65;;;11.75;;
40162;SDS011;25881;47.462;19.304;2022-08-21T08:51:14;15.02;;;11.73;;
40162;SDS011;25881;47.462;19.304;2022-08-21T08:53:51;14.57;;;12.65;;
40162;SDS011;25881;47.462;19.304;2022-08-21T08:56:17;14.52;;;11.27;;
40162;SDS011;25881;47.462;19.304;2022-08-21T08:58:43;16.40;;;12.05;;
40162;SDS011;25881;47.462;19.304;2022-08-21T09:01:16;13.65;;;11.02;;
40162;SDS011;25881;47.462;19.304;2022-08-21T09:03:42;14.23;;;11.73;;
40162;SDS011;25881;47.462;19.304;2022-08-21T09:06:13;14.90;;;11.90;;
40162;SDS011;25881;47.462;19.304;2022-08-21T09:08:58;15.55;;;13.02;;
40162;SDS011;25881;47.462;19.304;2022-08-21T09:11:28;13.02;;;11.35;;
40162;SDS011;25881;47.462;19.304;2022-08-21T09:14:14;14.48;;;11.48;;
40162;SDS011;25881;47.462;19.304;2022-08-21T09:18:52;37.17;;;13.50;;
40162;SDS011;25881;47.462;19.304;2022-08-21T09:21:17;12.13;;;10.68;;
40162;SDS011;25881;47.462;19.304;2022-08-21T09:23:50;15.93;;;12.93;;
40162;SDS011;25881;47.462;19.304;2022-08-21T09:26:18;15.25;;;11.50;;
40162;SDS011;25881;47.462;19.304;2022-08-21T09:28:44;12.40;;;10.38;;
40162;SDS011;25881;47.462;19.304;2022-08-21T09:31:20;16.58;;;11.55;;
40162;SDS011;25881;47.462;19.304;2022-08-21T09:33:46;14.85;;;11.63;;
40162;SDS011;25881;47.462;19.304;2022-08-21T09:36:11;15.73;;;12.90;;
40162;SDS011;25881;47.462;19.304;2022-08-21T09:38:37;15.38;;;13.38;;
40162;SDS011;25881;47.462;19.304;2022-08-21T09:43:28;14.18;;;12.30;;
40162;SDS011;25881;47.462;19.304;2022-08-21T09:48:28;16.55;;;13.00;;
40162;SDS011;25881;47.462;19.304;2022-08-21T09:51:04;17.10;;;12.80;;
40162;SDS011;25881;47.462;19.304;2022-08-21T09:53:29;16.40;;;12.85;;
40162;SDS011;25881;47.462;19.304;2022-08-21T09:58:43;13.57;;;12.02;;
40162;SDS011;25881;47.462;19.304;2022-08-21T10:01:13;14.10;;;11.85;;
40162;SDS011;25881;47.462;19.304;2022-08-21T10:03:39;14.73;;;12.55;;
40162;SDS011;25881;47.462;19.304;2022-08-21T10:06:06;18.67;;;13.47;;
40162;SDS011;25881;47.462;19.304;2022-08-21T10:08:34;16.20;;;12.57;;
40162;SDS011;25881;47.462;19.304;2022-08-21T10:14:07;17.10;;;13.35;;
40162;SDS011;25881;47.462;19.304;2022-08-21T10:18:53;15.00;;;12.70;;
40162;SDS011;25881;47.462;19.304;2022-08-21T10:21:22;13.48;;;11.82;;
40162;SDS011;25881;47.462;19.304;2022-08-21T10:39:04;16.73;;;13.10;;
40162;SDS011;25881;47.462;19.304;2022-08-21T10:49:29;12.15;;;10.10;;
40162;SDS011;25881;47.462;19.304;2022-08-21T11:00:15;12.68;;;10.32;;
40162;SDS011;25881;47.462;19.304;2022-08-21T11:07:38;10.88;;;9.50;;
40162;SDS011;25881;47.462;19.304;2022-08-21T11:10:26;11.05;;;9.43;;
40162;SDS011;25881;47.462;19.304;2022-08-21T11:12:52;13.88;;;10.18;;
40162;SDS011;25881;47.462;19.304;2022-08-21T11:15:38;14.45;;;10.68;;
40162;SDS011;25881;47.462;19.304;2022-08-21T11:18:17;13.98;;;10.25;;
40162;SDS011;25881;47.462;19.304;2022-08-21T11:20:49;15.85;;;10.85;;
40162;SDS011;25881;47.462;19.304;2022-08-21T11:23:23;13.25;;;9.77;;
40162;SDS011;25881;47.462;19.304;2022-08-21T11:25:53;11.45;;;8.80;;
40162;SDS011;25881;47.462;19.304;2022-08-21T11:28:26;11.30;;;9.25;;
40162;SDS011;25881;47.462;19.304;2022-08-21T11:31:13;12.48;;;9.77;;
40162;SDS011;25881;47.462;19.304;2022-08-21T11:38:56;14.75;;;10.30;;
40162;SDS011;25881;47.462;19.304;2022-08-21T11:41:25;12.68;;;9.68;;
40162;SDS011;25881;47.462;19.304;2022-08-21T11:51:47;12.00;;;9.52;;
40162;SDS011;25881;47.462;19.304;2022-08-21T11:56:50;14.63;;;9.60;;
40162;SDS011;25881;47.462;19.304;2022-08-21T12:01:57;13.48;;;9.38;;
40162;SDS011;25881;47.462;19.304;2022-08-21T12:06:48;13.57;;;10.13;;
40162;SDS011;25881;47.462;19.304;2022-08-21T12:11:49;12.68;;;10.07;;
40162;SDS011;25881;47.462;19.304;2022-08-21T12:14:16;12.65;;;10.32;;
40162;SDS011;25881;47.462;19.304;2022-08-21T12:16:43;14.20;;;10.77;;
40162;SDS011;25881;47.462;19.304;2022-08-21T12:19:10;14.10;;;10.50;;
40162;SDS011;25881;47.462;19.304;2022-08-21T12:24:30;17.10;;;10.13;;
40162;SDS011;25881;47.462;19.304;2022-08-21T12:26:58;14.35;;;11.85;;
40162;SDS011;25881;47.462;19.304;2022-08-21T12:29:28;13.10;;;11.50;;
40162;SDS011;25881;47.462;19.304;2022-08-21T12:35:01;14.27;;;12.02;;
40162;SDS011;25881;47.462;19.304;2022-08-21T12:39:52;15.95;;;11.77;;
40162;SDS011;25881;47.462;19.304;2022-08-21T12:42:21;16.48;;;12.60;;
40162;SDS011;25881;47.462;19.304;2022-08-21T12:47:14;15.07;;;11.83;;
40162;SDS011;25881;47.462;19.304;2022-08-21T12:49:50;16.48;;;12.88;;
40162;SDS011;25881;47.462;19.304;2022-08-21T12:55:14;15.02;;;12.18;;
40162;SDS011;25881;47.462;19.304;2022-08-21T12:57:41;16.05;;;12.50;;
40162;SDS011;25881;47.462;19.304;2022-08-21T13:00:08;16.35;;;13.65;;
40162;SDS011;25881;47.462;19.304;2022-08-21T13:02:38;13.65;;;12.05;;
40162;SDS011;25881;47.462;19.304;2022-08-21T13:05:08;15.57;;;12.40;;
40162;SDS011;25881;47.462;19.304;2022-08-21T13:07:37;13.80;;;11.20;;
40162;SDS011;25881;47.462;19.304;2022-08-21T13:10:07;11.60;;;10.40;;
40162;SDS011;25881;47.462;19.304;2022-08-21T13:12:40;12.32;;;9.90;;
40162;SDS011;25881;47.462;19.304;2022-08-21T13:15:06;12.60;;;10.55;;
40162;SDS011;25881;47.462;19.304;2022-08-21T13:17:32;12.75;;;9.60;;
40162;SDS011;25881;47.462;19.304;2022-08-21T13:20:00;12.93;;;10.00;;
40162;SDS011;25881;47.462;19.304;2022-08-21T13:22:26;11.10;;;9.90;;
40162;SDS011;25881;47.462;19.304;2022-08-21T13:24:52;14.07;;;9.75;;
40162;SDS011;25881;47.462;19.304;2022-08-21T13:27:23;11.88;;;9.18;;
40162;SDS011;25881;47.462;19.304;2022-08-21T13:29:48;13.43;;;11.05;;
40162;SDS011;25881;47.462;19.304;2022-08-21T13:32:25;11.65;;;9.77;;
40162;SDS011;25881;47.462;19.304;2022-08-21T13:34:52;18.63;;;11.15;;
40162;SDS011;25881;47.462;19.304;2022-08-21T13:37:18;11.37;;;10.10;;
40162;SDS011;25881;47.462;19.304;2022-08-21T13:39:48;11.55;;;9.63;;
40162;SDS011;25881;47.462;19.304;2022-08-21T13:42:13;8.75;;;6.13;;
40162;SDS011;25881;47.462;19.304;2022-08-21T13:44:43;9.27;;;5.90;;
40162;SDS011;25881;47.462;19.304;2022-08-21T13:47:09;15.10;;;6.85;;
40162;SDS011;25881;47.462;19.304;2022-08-21T13:49:36;9.32;;;7.05;;
40162;SDS011;25881;47.462;19.304;2022-08-21T13:52:02;9.32;;;5.88;;
40162;SDS011;25881;47.462;19.304;2022-08-21T13:54:38;11.43;;;7.25;;
40162;SDS011;25881;47.462;19.304;2022-08-21T13:57:14;11.15;;;6.95;;
40162;SDS011;25881;47.462;19.304;2022-08-21T13:59:40;13.68;;;7.50;;
40162;SDS011;25881;47.462;19.304;2022-08-21T14:06:59;12.40;;;6.83;;
40162;SDS011;25881;47.462;19.304;2022-08-21T14:09:31;9.85;;;6.18;;
40162;SDS011;25881;47.462;19.304;2022-08-21T14:11:57;12.13;;;7.00;;
40162;SDS011;25881;47.462;19.304;2022-08-21T14:14:29;14.75;;;11.13;;
40162;SDS011;25881;47.462;19.304;2022-08-21T14:16:58;15.20;;;12.73;;
40162;SDS011;25881;47.462;19.304;2022-08-21T14:19:25;13.90;;;12.40;;
40162;SDS011;25881;47.462;19.304;2022-08-21T14:21:51;15.65;;;12.45;;
40162;SDS011;25881;47.462;19.304;2022-08-21T14:26:52;15.35;;;12.20;;
40162;SDS011;25881;47.462;19.304;2022-08-21T14:29:18;17.23;;;13.32;;
40162;SDS011;25881;47.462;19.304;2022-08-21T14:31:55;17.10;;;12.32;;
40162;SDS011;25881;47.462;19.304;2022-08-21T14:34:20;15.27;;;12.55;;
40162;SDS011;25881;47.462;19.304;2022-08-21T14:36:47;13.90;;;11.40;;
40162;SDS011;25881;47.462;19.304;2022-08-21T14:39:12;15.52;;;11.77;;
40162;SDS011;25881;47.462;19.304;2022-08-21T14:41:37;16.77;;;10.77;;
40162;SDS011;25881;47.462;19.304;2022-08-21T14:44:02;13.10;;;9.40;;
40162;SDS011;25881;47.462;19.304;2022-08-21T14:46:29;10.95;;;8.15;;
40162;SDS011;25881;47.462;19.304;2022-08-21T14:48:55;8.90;;;8.00;;
40162;SDS011;25881;47.462;19.304;2022-08-21T14:51:20;10.02;;;8.10;;
40162;SDS011;25881;47.462;19.304;2022-08-21T14:53:46;11.27;;;8.00;;
40162;SDS011;25881;47.462;19.304;2022-08-21T14:56:11;11.43;;;8.13;;
40162;SDS011;25881;47.462;19.304;2022-08-21T14:58:39;12.02;;;8.35;;
40162;SDS011;25881;47.462;19.304;2022-08-21T15:01:06;10.15;;;8.70;;
40162;SDS011;25881;47.462;19.304;2022-08-21T15:03:32;11.82;;;8.30;;
40162;SDS011;25881;47.462;19.304;2022-08-21T15:05:58;11.10;;;8.82;;
40162;SDS011;25881;47.462;19.304;2022-08-21T15:08:23;14.07;;;9.80;;
40162;SDS011;25881;47.462;19.304;2022-08-21T15:10:48;13.43;;;9.27;;
40162;SDS011;25881;47.462;19.304;2022-08-21T15:13:13;12.73;;;9.97;;
40162;SDS011;25881;47.462;19.304;2022-08-21T15:15:43;16.67;;;10.85;;
40162;SDS011;25881;47.462;19.304;2022-08-21T15:18:09;11.82;;;9.73;;
40162;SDS011;25881;47.462;19.304;2022-08-21T15:20:34;14.40;;;10.93;;
40162;SDS011;25881;47.462;19.304;2022-08-21T15:22:59;14.20;;;9.95;;
40162;SDS011;25881;47.462;19.304;2022-08-21T15:25:25;16.10;;;10.47;;
40162;SDS011;25881;47.462;19.304;2022-08-21T15:27:50;11.53;;;9.20;;
40162;SDS011;25881;47.462;19.304;2022-08-21T15:30:15;14.17;;;11.03;;
40162;SDS011;25881;47.462;19.304;2022-08-21T15:32:40;16.00;;;11.13;;
40162;SDS011;25881;47.462;19.304;2022-08-21T15:35:06;15.82;;;13.05;;
40162;SDS011;25881;47.462;19.304;2022-08-21T15:37:32;14.43;;;12.15;;
40162;SDS011;25881;47.462;19.304;2022-08-21T15:39:57;12.43;;;11.20;;
40162;SDS011;25881;47.462;19.304;2022-08-21T15:42:23;13.50;;;12.05;;
40162;SDS011;25881;47.462;19.304;2022-08-21T15:44:49;14.93;;;11.35;;
40162;SDS011;25881;47.462;19.304;2022-08-21T15:47:15;17.10;;;12.13;;
40162;SDS011;25881;47.462;19.304;2022-08-21T15:49:42;13.40;;;11.10;;